Saturday, November 18, 2017, 9:43 PM EST
Back to Local

KMMU, Morristown Municipal

Location: Morristown, NJ, United States Lat: 40.8
Local Time: 9:43 PM EST ( 2:43 GMT) Lon: -74.417
Time Zone: US/Eastern Elev: 187 ft

Show me the last for .
Show Coded

Time T Td Feel RH Dir Speed Gust Alt SLP Vis Weather Sky Remarks
2017-11-18 20:45 43 43 - 100 - Calm - 29.53 - 7 -RA OVC090 None
2017-11-18 19:45 43 43 - 100 - Calm - 29.58 - 7 -RA BKN060 None
2017-11-18 18:45 43 43 - 100 - Calm - 29.62 - 4 -RA BR SCT037 SCT050 OVC080 None
2017-11-18 17:45 43 43 - 100 - Calm - 29.65 - 4 -RA BR SCT035 SCT060 OVC100 None
2017-11-18 16:55 43 43 - 100 - Calm - 29.65 - 10 -RA BR OVC100 None
2017-11-18 15:45 46 43 - 87 - Calm - 29.67 - 10 -RA BR SCT046 OVC100 None
2017-11-18 14:45 48 39 - 70 - Calm - 29.69 - 10 BKN070 OVC085 None
2017-11-18 13:45 46 39 44 75 210° 5 - 29.72 - 10 BKN095 OVC120 None
2017-11-18 12:46 46 36 40 65 210° 8 15 29.76 - 10 OVC095 None
2017-11-18 12:45 46 28 40 49 210° 8 15 29.76 - 10 OVC095 None
2017-11-18 11:45 41 30 - 65 - Calm - 29.82 - 10 BKN120 None
2017-11-18 10:50 34 27 - 74 - Calm - 29.89 - 10 BKN120 None
2017-11-18 09:55 32 28 - 86 - Calm - 29.92 - 10 BKN120 None
2017-11-18 08:45 28 27 - 92 - Calm - 29.96 - 10 FEW150 BKN250 None
2017-11-18 07:45 27 25 - 92 - Calm - 29.97 - 10 FEW150 BKN250 None
2017-11-18 06:45 25 23 - 92 - Calm - 29.99 - 10 FEW150 BKN250 None
2017-11-18 05:35 23 23 - 100 - Calm - 30.00 - 10 CLR None
2017-11-18 05:15 23 23 - 100 - Calm - 30.00 - 10 CLR None
2017-11-18 04:55 23 23 - 100 - Calm - 30.00 - 10 CLR None
2017-11-18 04:35 23 23 - 100 - Calm - 30.01 - 10 CLR None
2017-11-18 04:15 23 21 - 92 - Calm - 30.02 - 10 CLR None
2017-11-18 03:55 23 23 - 100 - Calm - 30.00 - 10 CLR None
2017-11-18 03:35 23 23 - 100 - Calm - 30.01 - 10 CLR None
2017-11-18 03:15 25 23 - 92 - Calm - 30.02 - 10 CLR None
2017-11-18 02:55 23 23 - 100 - Calm - 30.02 - 10 CLR None
2017-11-18 02:35 25 23 - 92 - Calm - 30.02 - 10 CLR None
2017-11-18 02:15 25 23 - 92 - Calm - 30.04 - 10 CLR None
2017-11-18 01:55 25 23 - 92 - Calm - 30.04 - 10 CLR None
2017-11-18 01:35 25 25 - 100 - Calm - 30.05 - 10 CLR None
2017-11-18 01:15 25 23 - 92 - Calm - 30.04 - 10 CLR None
2017-11-18 00:55 25 23 - 92 - Calm - 30.05 - 10 CLR None
2017-11-18 00:35 25 23 - 92 - Calm - 30.06 - 10 CLR None
2017-11-18 00:15 25 23 - 92 - Calm - 30.07 - 10 CLR None
2017-11-17 23:55 27 23 - 86 - Calm - 30.08 - 10 CLR None
2017-11-17 23:35 28 23 - 79 - Calm - 30.08 - 10 CLR None
2017-11-17 23:15 27 23 - 86 - Calm - 30.08 - 10 CLR None
2017-11-17 22:55 28 23 - 79 - Calm - 30.08 - 10 CLR None
2017-11-17 22:35 28 23 - 79 - Calm - 30.08 - 10 CLR None
2017-11-17 22:15 28 23 - 79 - Calm - 30.08 - 10 CLR None
2017-11-17 21:55 30 23 - 74 - Calm - 30.10 - 10 CLR None
2017-11-17 21:45 30 23 - 74 - Calm - 30.10 - 10 CLR None

Support USWX by starting your Amazon purchase here.